Time;durP1;ratioP1;P1;durP2;ratioP2;P2;SDS_P1;SDS_P2;PMS_P1;PMS_P2;Temp;Humidity;BMP_temperature;BMP_pressure;BME280_temperature;BME280_humidity;BME280_pressure;Samples;Min_cycle;Max_cycle;Signal;HPM_P1;HPM_P2
2021/08/03 00:01:41;;;;;;;5.47;1.45;;;;;;;;;;5061078;28;20033;-71
2021/08/03 00:04:12;;;;;;;6.93;1.63;;;;;;;;;;5060350;28;20039;-71
2021/08/03 00:06:41;;;;;;;4.55;1.40;;;;;;;;;;5059541;28;20029;-71
2021/08/03 00:09:07;;;;;;;3.05;1.40;;;;;;;;;;5065326;28;20086;-69
2021/08/03 00:11:33;;;;;;;2.72;1.25;;;;;;;;;;5061652;28;20047;-69
2021/08/03 00:14:04;;;;;;;4.30;1.27;;;;;;;;;;5043708;28;20510;-70
2021/08/03 00:16:33;;;;;;;5.25;1.55;;;;;;;;;;5061151;28;20356;-70
2021/08/03 00:18:59;;;;;;;2.38;1.20;;;;;;;;;;5057706;28;20119;-71
2021/08/03 00:21:26;;;;;;;4.45;1.60;;;;;;;;;;5061464;28;20059;-70
2021/08/03 00:23:52;;;;;;;2.85;1.48;;;;;;;;;;5063087;28;20578;-70
2021/08/03 00:26:18;;;;;;;6.72;1.23;;;;;;;;;;5043604;28;20028;-72
2021/08/03 00:28:50;;;;;;;3.53;1.23;;;;;;;;;;5061206;28;20021;-70
2021/08/03 00:31:17;;;;;;;3.28;1.40;;;;;;;;;;5055966;28;20052;-70
2021/08/03 00:33:48;;;;;;;3.03;1.15;;;;;;;;;;5044154;28;20097;-71
2021/08/03 00:36:15;;;;;;;2.75;1.33;;;;;;;;;;5043943;28;20029;-70
2021/08/03 00:38:41;;;;;;;4.85;1.52;;;;;;;;;;5060698;28;20035;-71
2021/08/03 00:41:10;;;;;;;3.67;1.40;;;;;;;;;;5061541;28;20020;-70
2021/08/03 00:43:36;;;;;;;3.70;1.40;;;;;;;;;;5057140;28;20107;-71
2021/08/03 00:46:02;;;;;;;3.05;1.33;;;;;;;;;;5045182;28;20025;-71
2021/08/03 00:48:28;;;;;;;4.00;1.33;;;;;;;;;;5061864;28;20035;-70
2021/08/03 00:50:54;;;;;;;2.45;1.20;;;;;;;;;;5060793;28;20052;-70
2021/08/03 00:53:20;;;;;;;5.70;1.65;;;;;;;;;;5044760;28;20064;-70
2021/08/03 00:55:47;;;;;;;3.58;1.40;;;;;;;;;;5041974;28;20028;-70
2021/08/03 00:58:13;;;;;;;2.92;1.30;;;;;;;;;;5061614;28;20040;-70
2021/08/03 01:00:39;;;;;;;3.45;1.23;;;;;;;;;;5061792;28;20029;-70
2021/08/03 01:03:05;;;;;;;3.53;1.27;;;;;;;;;;5060923;28;20028;-70
2021/08/03 01:05:38;;;;;;;3.55;1.30;;;;;;;;;;5061646;28;20411;-70
2021/08/03 01:08:07;;;;;;;4.20;1.45;;;;;;;;;;5058062;28;20052;-70
2021/08/03 01:10:33;;;;;;;3.42;1.25;;;;;;;;;;5059079;28;20537;-69
2021/08/03 01:13:03;;;;;;;8.05;1.45;;;;;;;;;;5070240;28;20044;-69
2021/08/03 01:15:32;;;;;;;2.78;1.27;;;;;;;;;;5073455;28;20017;-69
2021/08/03 01:18:04;;;;;;;3.65;1.23;;;;;;;;;;5073191;28;20108;-69
2021/08/03 01:20:33;;;;;;;4.07;1.20;;;;;;;;;;5073298;28;20021;-69
2021/08/03 01:23:14;;;;;;;4.72;1.30;;;;;;;;;;5073225;28;20021;-69
2021/08/03 01:25:55;;;;;;;3.42;1.20;;;;;;;;;;5073125;28;20024;-69
2021/08/03 01:28:25;;;;;;;4.57;1.33;;;;;;;;;;5073077;28;20020;-68
2021/08/03 01:30:53;;;;;;;4.22;1.50;;;;;;;;;;5055119;28;20608;-69
2021/08/03 01:33:21;;;;;;;3.88;1.50;;;;;;;;;;5072562;28;20095;-69
2021/08/03 01:35:48;;;;;;;4.05;1.10;;;;;;;;;;5054888;28;20024;-68
2021/08/03 01:38:17;;;;;;;2.47;1.23;;;;;;;;;;5073012;28;20033;-69
2021/08/03 01:40:44;;;;;;;3.17;1.27;;;;;;;;;;5072971;28;20024;-68
2021/08/03 01:43:10;;;;;;;2.00;1.10;;;;;;;;;;5072371;28;20735;-69
2021/08/03 01:45:38;;;;;;;4.50;1.35;;;;;;;;;;5054749;28;20032;-68
2021/08/03 01:48:05;;;;;;;2.47;1.10;;;;;;;;;;5054558;28;20082;-69
2021/08/03 01:50:31;;;;;;;2.17;1.00;;;;;;;;;;5072548;28;20012;-69
2021/08/03 01:52:57;;;;;;;2.78;1.30;;;;;;;;;;5054400;28;20028;-69
2021/08/03 01:55:25;;;;;;;4.57;1.48;;;;;;;;;;5054381;28;20602;-69
2021/08/03 01:57:51;;;;;;;2.88;1.00;;;;;;;;;;5072460;28;20117;-70
2021/08/03 02:00:17;;;;;;;6.03;1.52;;;;;;;;;;5072447;28;20052;-71
2021/08/03 02:02:44;;;;;;;2.78;1.40;;;;;;;;;;5072511;28;20019;-70
2021/08/03 02:05:11;;;;;;;3.15;1.38;;;;;;;;;;5072461;28;20025;-70
2021/08/03 02:07:37;;;;;;;3.28;1.40;;;;;;;;;;5072515;28;20029;-71
2021/08/03 02:10:03;;;;;;;3.80;1.40;;;;;;;;;;5072445;28;20480;-71
2021/08/03 02:12:31;;;;;;;4.80;1.30;;;;;;;;;;5054494;28;20028;-70
2021/08/03 02:14:57;;;;;;;2.72;1.50;;;;;;;;;;5072172;28;20037;-70
2021/08/03 02:17:24;;;;;;;3.63;1.20;;;;;;;;;;5072351;28;20056;-71
2021/08/03 02:19:51;;;;;;;2.78;1.23;;;;;;;;;;5054244;28;20118;-71
2021/08/03 02:22:17;;;;;;;4.50;1.90;;;;;;;;;;5072224;28;20031;-70
2021/08/03 02:24:44;;;;;;;4.50;1.40;;;;;;;;;;5072063;28;20017;-71
2021/08/03 02:27:10;;;;;;;3.75;1.45;;;;;;;;;;5072243;28;20017;-70
2021/08/03 02:29:37;;;;;;;3.92;1.30;;;;;;;;;;5054137;28;20092;-70
2021/08/03 02:32:24;;;;;;;3.10;1.33;;;;;;;;;;5072328;28;20028;-71
2021/08/03 02:34:59;;;;;;;2.75;1.23;;;;;;;;;;5054096;28;20028;-71
2021/08/03 02:37:29;;;;;;;2.85;1.25;;;;;;;;;;5053979;28;20025;-70
2021/08/03 02:39:55;;;;;;;3.13;1.35;;;;;;;;;;5053757;28;20032;-70
2021/08/03 02:42:22;;;;;;;4.30;1.23;;;;;;;;;;5053995;28;20053;-70
2021/08/03 02:44:50;;;;;;;2.25;1.20;;;;;;;;;;5053685;28;20048;-70
2021/08/03 02:47:19;;;;;;;4.47;1.30;;;;;;;;;;5071990;28;20104;-71
2021/08/03 02:49:50;;;;;;;4.20;1.58;;;;;;;;;;5053763;28;20092;-71
2021/08/03 02:52:20;;;;;;;3.47;1.38;;;;;;;;;;5071887;28;20479;-71
2021/08/03 02:54:49;;;;;;;2.47;1.20;;;;;;;;;;5071805;28;20056;-70
2021/08/03 02:57:16;;;;;;;2.97;1.45;;;;;;;;;;5075982;28;20055;-70
2021/08/03 02:59:47;;;;;;;4.10;1.30;;;;;;;;;;5057802;28;20021;-71
2021/08/03 03:02:15;;;;;;;3.58;1.20;;;;;;;;;;5075898;28;20024;-70
2021/08/03 03:04:48;;;;;;;5.18;1.50;;;;;;;;;;5075871;28;20036;-70
2021/08/03 03:07:18;;;;;;;3.88;1.40;;;;;;;;;;5075706;28;20032;-71
2021/08/03 03:09:45;;;;;;;7.85;1.33;;;;;;;;;;5075482;28;20100;-70
2021/08/03 03:12:11;;;;;;;2.83;1.33;;;;;;;;;;5072792;28;20111;-70
2021/08/03 03:14:39;;;;;;;2.60;1.15;;;;;;;;;;5053049;28;20512;-70
2021/08/03 03:17:07;;;;;;;4.30;1.30;;;;;;;;;;5053013;28;20036;-71
2021/08/03 03:19:36;;;;;;;3.35;1.30;;;;;;;;;;5054450;28;20028;-70
2021/08/03 03:22:03;;;;;;;2.70;1.20;;;;;;;;;;5054085;28;20029;-70
2021/08/03 03:24:31;;;;;;;3.90;1.40;;;;;;;;;;5053972;28;20049;-72
2021/08/03 03:26:57;;;;;;;2.70;1.30;;;;;;;;;;5053924;28;20021;-70
2021/08/03 03:29:25;;;;;;;2.88;1.38;;;;;;;;;;5052571;28;20040;-71
2021/08/03 03:31:52;;;;;;;3.17;1.42;;;;;;;;;;5053924;28;20043;-70
2021/08/03 03:34:18;;;;;;;4.18;1.25;;;;;;;;;;5053933;28;20025;-70
2021/08/03 03:36:45;;;;;;;2.63;1.20;;;;;;;;;;5054003;28;20021;-70
2021/08/03 03:39:11;;;;;;;4.68;1.27;;;;;;;;;;5053879;28;20029;-70
2021/08/03 03:41:38;;;;;;;2.65;1.20;;;;;;;;;;5052533;28;20029;-70
2021/08/03 03:44:07;;;;;;;3.95;1.25;;;;;;;;;;5053690;28;20032;-70
2021/08/03 03:46:34;;;;;;;2.45;1.17;;;;;;;;;;5053722;28;20108;-70
2021/08/03 03:49:08;;;;;;;4.32;1.60;;;;;;;;;;5052477;28;20025;-71
2021/08/03 03:51:36;;;;;;;3.92;1.67;;;;;;;;;;5053890;28;20029;-71
2021/08/03 03:54:03;;;;;;;3.75;1.33;;;;;;;;;;5053615;28;20017;-71
2021/08/03 03:56:34;;;;;;;2.63;1.30;;;;;;;;;;5053745;28;20055;-71
2021/08/03 03:59:02;;;;;;;3.50;1.30;;;;;;;;;;5052344;28;20037;-71
2021/08/03 04:01:29;;;;;;;4.25;1.50;;;;;;;;;;5052206;28;20044;-71
2021/08/03 04:04:01;;;;;;;3.38;1.25;;;;;;;;;;5053475;28;20029;-72
2021/08/03 04:06:28;;;;;;;3.00;1.10;;;;;;;;;;5051683;28;20028;-71
2021/08/03 04:08:54;;;;;;;2.83;1.33;;;;;;;;;;5052020;28;20128;-71
2021/08/03 04:11:20;;;;;;;2.60;1.17;;;;;;;;;;5053420;28;20024;-71
2021/08/03 04:13:48;;;;;;;3.08;1.58;;;;;;;;;;5019380;28;1272337;-71
2021/08/03 04:16:15;;;;;;;3.75;1.45;;;;;;;;;;5074506;28;20522;-71
2021/08/03 04:18:41;;;;;;;3.08;1.30;;;;;;;;;;5074617;28;20056;-72
2021/08/03 04:21:08;;;;;;;2.70;1.50;;;;;;;;;;5074532;28;20134;-71
2021/08/03 04:23:34;;;;;;;2.92;1.33;;;;;;;;;;5074338;28;20480;-71
2021/08/03 04:26:01;;;;;;;5.72;1.73;;;;;;;;;;5056478;28;20424;-71
2021/08/03 04:28:27;;;;;;;3.78;1.35;;;;;;;;;;5074476;28;20029;-71
2021/08/03 04:30:53;;;;;;;3.92;1.25;;;;;;;;;;5074453;28;20356;-71
2021/08/03 04:33:19;;;;;;;8.27;1.70;;;;;;;;;;5074096;28;20013;-71
2021/08/03 04:35:46;;;;;;;4.85;1.50;;;;;;;;;;5074186;28;20703;-70
2021/08/03 04:38:12;;;;;;;5.85;1.50;;;;;;;;;;5073921;28;20119;-71
2021/08/03 04:40:38;;;;;;;4.05;1.58;;;;;;;;;;5073972;28;20024;-71
2021/08/03 04:43:04;;;;;;;19.48;2.08;;;;;;;;;;5056080;28;20458;-70
2021/08/03 04:45:30;;;;;;;3.85;1.60;;;;;;;;;;5074117;28;20429;-70
2021/08/03 04:47:56;;;;;;;4.53;1.42;;;;;;;;;;5055926;28;20095;-70
2021/08/03 04:50:23;;;;;;;2.97;1.55;;;;;;;;;;5073834;28;20360;-70
2021/08/03 04:52:49;;;;;;;8.77;1.83;;;;;;;;;;5073561;28;20025;-69
2021/08/03 04:55:15;;;;;;;5.85;1.92;;;;;;;;;;5055579;28;20020;-71
2021/08/03 04:57:42;;;;;;;3.90;1.60;;;;;;;;;;5073533;28;20029;-71
2021/08/03 05:00:09;;;;;;;5.82;1.70;;;;;;;;;;5055424;28;20074;-71
2021/08/03 05:02:35;;;;;;;7.45;1.52;;;;;;;;;;5073708;28;20013;-71
2021/08/03 05:05:02;;;;;;;4.40;2.17;;;;;;;;;;5073597;28;20380;-71
2021/08/03 05:07:29;;;;;;;5.72;1.83;;;;;;;;;;5073369;28;20041;-71
2021/08/03 05:10:00;;;;;;;4.95;1.65;;;;;;;;;;5055206;28;20433;-71
2021/08/03 05:12:26;;;;;;;4.18;1.70;;;;;;;;;;5045238;28;20021;-71
2021/08/03 05:14:58;;;;;;;8.73;1.67;;;;;;;;;;5035180;28;20041;-71
2021/08/03 05:17:24;;;;;;;3.77;1.63;;;;;;;;;;5053050;28;20021;-71
2021/08/03 05:19:51;;;;;;;5.10;1.70;;;;;;;;;;5052776;28;20029;-71
2021/08/03 05:22:18;;;;;;;7.78;2.53;;;;;;;;;;5052948;28;20586;-71
2021/08/03 05:24:44;;;;;;;9.50;2.03;;;;;;;;;;5052962;28;20438;-71
2021/08/03 05:27:10;;;;;;;9.10;2.63;;;;;;;;;;5052853;28;20075;-71
2021/08/03 05:29:36;;;;;;;14.40;2.53;;;;;;;;;;5052830;28;20060;-71
2021/08/03 05:32:02;;;;;;;12.25;2.22;;;;;;;;;;5052787;28;20482;-71
2021/08/03 05:34:28;;;;;;;5.30;2.30;;;;;;;;;;5052846;28;20032;-71
2021/08/03 05:36:55;;;;;;;14.25;2.58;;;;;;;;;;5052661;28;20025;-71
2021/08/03 05:39:21;;;;;;;10.32;3.08;;;;;;;;;;5052834;28;20064;-71
2021/08/03 05:41:47;;;;;;;9.63;2.70;;;;;;;;;;5034959;28;20021;-71
2021/08/03 05:44:13;;;;;;;9.25;2.83;;;;;;;;;;5052777;28;20028;-71
2021/08/03 05:46:39;;;;;;;6.70;2.22;;;;;;;;;;5052561;28;20020;-71
2021/08/03 05:49:05;;;;;;;6.53;2.10;;;;;;;;;;5052548;28;20025;-71
2021/08/03 05:51:31;;;;;;;8.55;2.10;;;;;;;;;;5052527;28;20029;-72
2021/08/03 05:53:58;;;;;;;14.73;2.60;;;;;;;;;;5052389;28;20021;-71
2021/08/03 05:56:24;;;;;;;9.88;2.45;;;;;;;;;;5034558;28;20021;-71
2021/08/03 05:58:50;;;;;;;7.40;2.58;;;;;;;;;;5034642;28;20032;-71
2021/08/03 06:01:16;;;;;;;8.48;2.35;;;;;;;;;;5052445;28;20021;-72
2021/08/03 06:03:42;;;;;;;8.73;2.45;;;;;;;;;;5052290;28;20383;-72
2021/08/03 06:06:09;;;;;;;15.23;2.42;;;;;;;;;;5054996;28;20028;-71
2021/08/03 06:08:35;;;;;;;22.17;3.60;;;;;;;;;;5035064;28;20087;-71
2021/08/03 06:11:03;;;;;;;16.75;2.75;;;;;;;;;;5052212;28;20021;-71
2021/08/03 06:13:30;;;;;;;11.23;3.20;;;;;;;;;;5051628;28;20041;-71
2021/08/03 06:15:58;;;;;;;10.98;2.72;;;;;;;;;;5051894;28;20013;-72
2021/08/03 06:18:37;;;;;;;14.88;2.53;;;;;;;;;;5051849;28;20496;-73
2021/08/03 06:21:03;;;;;;;18.27;2.72;;;;;;;;;;5053158;28;20476;-73
2021/08/03 06:23:29;;;;;;;11.88;2.40;;;;;;;;;;5072032;28;20103;-70
2021/08/03 06:26:00;;;;;;;15.75;2.78;;;;;;;;;;5072095;28;20021;-69
2021/08/03 06:28:26;;;;;;;12.52;2.83;;;;;;;;;;5040518;28;20074;-70
2021/08/03 06:30:53;;;;;;;13.82;2.95;;;;;;;;;;5051902;28;20487;-69
2021/08/03 06:33:20;;;;;;;12.93;2.67;;;;;;;;;;5033991;28;20028;-71
2021/08/03 06:35:46;;;;;;;14.77;2.72;;;;;;;;;;5052104;28;20025;-70
2021/08/03 06:38:13;;;;;;;19.40;2.90;;;;;;;;;;5033851;28;20074;-71
2021/08/03 06:40:59;;;;;;;15.70;2.42;;;;;;;;;;5051883;28;20032;-70
2021/08/03 06:43:26;;;;;;;26.00;3.40;;;;;;;;;;5041409;28;20033;-70
2021/08/03 06:45:55;;;;;;;23.30;3.20;;;;;;;;;;5051487;28;20103;-71
2021/08/03 06:48:23;;;;;;;18.60;3.25;;;;;;;;;;5032880;28;20025;-70
2021/08/03 06:51:15;;;;;;;19.30;3.50;;;;;;;;;;5049976;28;20025;-73
2021/08/03 06:53:43;;;;;;;31.08;2.90;;;;;;;;;;5047162;28;20124;-69
2021/08/03 06:56:10;;;;;;;25.90;3.20;;;;;;;;;;5032738;28;20035;-69
2021/08/03 06:58:48;;;;;;;13.05;3.03;;;;;;;;;;5051574;28;20095;-69
2021/08/03 07:01:16;;;;;;;13.75;2.55;;;;;;;;;;5051814;28;20127;-69
2021/08/03 07:03:47;;;;;;;14.80;2.35;;;;;;;;;;5051660;28;20021;-69
2021/08/03 07:06:14;;;;;;;9.32;1.92;;;;;;;;;;5050484;28;20415;-69
2021/08/03 07:08:41;;;;;;;9.32;2.70;;;;;;;;;;5033824;28;20149;-69
2021/08/03 07:11:07;;;;;;;11.57;2.20;;;;;;;;;;5033670;28;20029;-70
2021/08/03 07:13:33;;;;;;;9.38;2.25;;;;;;;;;;5050892;28;20523;-69
2021/08/03 07:16:03;;;;;;;14.68;2.03;;;;;;;;;;5051032;28;20051;-69
2021/08/03 07:18:29;;;;;;;8.93;2.33;;;;;;;;;;5049811;28;20021;-69
2021/08/03 07:20:56;;;;;;;7.97;2.03;;;;;;;;;;5032665;28;20028;-69
2021/08/03 07:23:22;;;;;;;6.35;2.00;;;;;;;;;;5050721;28;20029;-69
2021/08/03 07:25:50;;;;;;;8.38;1.90;;;;;;;;;;5050904;28;20048;-69
2021/08/03 07:28:17;;;;;;;5.65;1.92;;;;;;;;;;5050954;28;20040;-69
2021/08/03 07:30:43;;;;;;;5.30;1.83;;;;;;;;;;5050971;28;20017;-69
2021/08/03 07:33:15;;;;;;;8.02;2.15;;;;;;;;;;5051060;28;20100;-69
2021/08/03 07:35:42;;;;;;;5.35;1.70;;;;;;;;;;5051242;28;20090;-69
2021/08/03 07:38:09;;;;;;;9.77;1.88;;;;;;;;;;5051263;28;20389;-69
2021/08/03 07:40:36;;;;;;;10.30;2.33;;;;;;;;;;5051403;28;20024;-70
2021/08/03 07:43:03;;;;;;;8.93;1.73;;;;;;;;;;5054734;28;20017;-69
2021/08/03 07:45:29;;;;;;;7.07;1.77;;;;;;;;;;5054881;28;20021;-69
2021/08/03 07:47:55;;;;;;;6.45;1.50;;;;;;;;;;5055097;28;20475;-69
2021/08/03 07:50:21;;;;;;;5.47;1.60;;;;;;;;;;5055040;28;20024;-69
2021/08/03 07:52:47;;;;;;;4.97;1.65;;;;;;;;;;5055077;28;20029;-69
2021/08/03 07:55:13;;;;;;;3.65;1.58;;;;;;;;;;5036695;28;20028;-69
2021/08/03 07:57:39;;;;;;;5.00;1.55;;;;;;;;;;5036738;28;20067;-68
2021/08/03 08:00:06;;;;;;;3.22;1.33;;;;;;;;;;5054686;28;20029;-69
2021/08/03 08:02:32;;;;;;;5.32;1.40;;;;;;;;;;5054797;28;20016;-69
2021/08/03 08:04:58;;;;;;;4.45;1.40;;;;;;;;;;5036640;28;20025;-69
2021/08/03 08:07:26;;;;;;;6.43;1.95;;;;;;;;;;5054530;28;20021;-69
2021/08/03 08:09:52;;;;;;;2.10;1.13;;;;;;;;;;5054483;28;20017;-70
2021/08/03 08:12:18;;;;;;;3.42;1.30;;;;;;;;;;5054543;28;20051;-68
2021/08/03 08:14:44;;;;;;;2.83;1.33;;;;;;;;;;5054175;28;20040;-68
2021/08/03 08:17:10;;;;;;;4.00;1.30;;;;;;;;;;5054291;28;20033;-68
2021/08/03 08:19:36;;;;;;;5.60;1.50;;;;;;;;;;5054268;28;20029;-68
2021/08/03 08:22:03;;;;;;;3.17;1.20;;;;;;;;;;5054433;28;20017;-68
2021/08/03 08:24:29;;;;;;;5.22;1.30;;;;;;;;;;5054245;28;20116;-69
2021/08/03 08:26:55;;;;;;;3.05;1.50;;;;;;;;;;5054289;28;20031;-68
2021/08/03 08:29:21;;;;;;;2.40;1.20;;;;;;;;;;5054211;28;20036;-68
2021/08/03 08:31:47;;;;;;;3.47;1.58;;;;;;;;;;5054691;28;20021;-68
2021/08/03 08:34:13;;;;;;;5.25;1.75;;;;;;;;;;5053975;28;20488;-70
2021/08/03 08:36:40;;;;;;;4.32;1.60;;;;;;;;;;5054325;28;20044;-68
2021/08/03 08:39:06;;;;;;;3.33;1.50;;;;;;;;;;5053910;28;20546;-68
2021/08/03 08:41:37;;;;;;;2.72;1.23;;;;;;;;;;5053963;28;20111;-68
2021/08/03 08:44:04;;;;;;;4.57;1.48;;;;;;;;;;5053914;28;20617;-68
2021/08/03 08:46:33;;;;;;;4.32;1.33;;;;;;;;;;5053792;28;20029;-69
2021/08/03 08:49:00;;;;;;;3.65;1.27;;;;;;;;;;5053729;28;20495;-69
2021/08/03 08:51:27;;;;;;;2.83;1.05;;;;;;;;;;5035934;28;20025;-69
2021/08/03 08:53:53;;;;;;;2.55;1.17;;;;;;;;;;5052265;28;20032;-69
2021/08/03 08:56:19;;;;;;;4.38;1.10;;;;;;;;;;5035838;28;20433;-68
2021/08/03 08:58:45;;;;;;;3.88;1.27;;;;;;;;;;5053652;28;20037;-68
2021/08/03 09:01:11;;;;;;;2.30;1.20;;;;;;;;;;5053569;28;20053;-69
2021/08/03 09:03:37;;;;;;;2.78;1.48;;;;;;;;;;5053516;28;20024;-68
2021/08/03 09:06:05;;;;;;;5.40;1.58;;;;;;;;;;5035618;28;20021;-68
2021/08/03 09:08:35;;;;;;;3.13;1.17;;;;;;;;;;5053549;28;20155;-69
2021/08/03 09:11:05;;;;;;;4.07;1.55;;;;;;;;;;5035399;28;20052;-69
2021/08/03 09:13:46;;;;;;;2.33;1.10;;;;;;;;;;5053291;28;20496;-68
2021/08/03 09:16:14;;;;;;;3.17;1.30;;;;;;;;;;5035800;28;20407;-68
2021/08/03 09:18:41;;;;;;;3.13;1.45;;;;;;;;;;5035344;28;20033;-68
2021/08/03 09:21:17;;;;;;;3.65;1.10;;;;;;;;;;5053094;28;20029;-68
2021/08/03 09:23:45;;;;;;;2.58;1.13;;;;;;;;;;5052982;28;20021;-69
2021/08/03 09:26:11;;;;;;;3.13;1.30;;;;;;;;;;5052998;28;20272;-69
2021/08/03 09:28:57;;;;;;;2.55;1.02;;;;;;;;;;5053175;28;20063;-68
2021/08/03 09:31:23;;;;;;;3.58;1.23;;;;;;;;;;5053057;28;20472;-68
2021/08/03 09:33:49;;;;;;;3.90;1.60;;;;;;;;;;5034999;28;20087;-68
2021/08/03 09:36:15;;;;;;;3.40;1.33;;;;;;;;;;5053117;28;20476;-68
2021/08/03 09:38:41;;;;;;;3.55;1.20;;;;;;;;;;5052664;28;20063;-68
2021/08/03 09:41:09;;;;;;;2.10;0.90;;;;;;;;;;5035055;28;20061;-69
2021/08/03 09:43:35;;;;;;;3.50;1.30;;;;;;;;;;5053053;28;20025;-69
2021/08/03 09:46:02;;;;;;;2.40;1.10;;;;;;;;;;5052985;28;20476;-69
2021/08/03 09:48:31;;;;;;;4.47;1.30;;;;;;;;;;5052749;28;20115;-69
2021/08/03 09:50:59;;;;;;;2.88;1.10;;;;;;;;;;5052652;28;20380;-68
2021/08/03 09:53:44;;;;;;;2.67;1.23;;;;;;;;;;5034522;28;20025;-69
2021/08/03 09:56:11;;;;;;;3.90;1.10;;;;;;;;;;5052577;28;20471;-69
2021/08/03 09:58:50;;;;;;;3.22;1.23;;;;;;;;;;5052438;28;20067;-68
2021/08/03 10:01:23;;;;;;;2.55;1.30;;;;;;;;;;5052694;28;20097;-68
2021/08/03 10:03:52;;;;;;;2.75;1.02;;;;;;;;;;5052139;28;20116;-69
2021/08/03 10:06:19;;;;;;;3.78;1.00;;;;;;;;;;5034438;28;20029;-68
2021/08/03 10:08:47;;;;;;;3.20;1.00;;;;;;;;;;5034234;28;20032;-69
2021/08/03 10:11:13;;;;;;;2.63;1.10;;;;;;;;;;5052236;28;20043;-69
2021/08/03 10:13:39;;;;;;;2.10;0.90;;;;;;;;;;5052118;28;20053;-68
2021/08/03 10:16:06;;;;;;;2.53;0.98;;;;;;;;;;5052122;28;20361;-68
2021/08/03 10:18:33;;;;;;;3.78;1.33;;;;;;;;;;5052198;28;20579;-69
2021/08/03 10:20:59;;;;;;;2.85;1.25;;;;;;;;;;5052281;28;20033;-69
2021/08/03 10:23:25;;;;;;;2.88;1.13;;;;;;;;;;5034182;28;20025;-68
2021/08/03 10:25:51;;;;;;;1.80;1.00;;;;;;;;;;5051991;28;20017;-68
2021/08/03 10:28:23;;;;;;;3.65;1.13;;;;;;;;;;5052244;28;20163;-68
2021/08/03 10:30:49;;;;;;;2.13;1.10;;;;;;;;;;5052176;28;20491;-68
2021/08/03 10:33:34;;;;;;;2.35;1.00;;;;;;;;;;5052403;28;20029;-69
2021/08/03 10:36:00;;;;;;;2.67;1.02;;;;;;;;;;5052041;28;20050;-70
2021/08/03 10:38:29;;;;;;;1.83;0.93;;;;;;;;;;5051875;28;20040;-69
2021/08/03 10:40:57;;;;;;;1.80;0.82;;;;;;;;;;5051941;28;20025;-69
2021/08/03 10:43:23;;;;;;;3.83;1.00;;;;;;;;;;5051874;28;20063;-68
2021/08/03 10:45:50;;;;;;;1.52;0.90;;;;;;;;;;5052033;28;20399;-68
2021/08/03 10:48:34;;;;;;;2.13;0.90;;;;;;;;;;5051671;28;20060;-68
2021/08/03 10:51:23;;;;;;;3.22;1.30;;;;;;;;;;5051837;28;20100;-69
2021/08/03 10:54:00;;;;;;;1.80;0.95;;;;;;;;;;5051788;28;20021;-69
2021/08/03 10:56:27;;;;;;;2.35;1.05;;;;;;;;;;5051850;28;20095;-68
2021/08/03 10:59:25;;;;;;;1.83;1.00;;;;;;;;;;5033536;28;20037;-69
2021/08/03 11:01:51;;;;;;;2.92;0.90;;;;;;;;;;5017947;28;20036;-69
2021/08/03 11:04:41;;;;;;;1.85;0.98;;;;;;;;;;5051450;28;20029;-68
2021/08/03 11:07:26;;;;;;;2.53;1.10;;;;;;;;;;5043977;28;20049;-68
2021/08/03 11:09:52;;;;;;;1.67;0.88;;;;;;;;;;5051743;28;20021;-68
2021/08/03 11:12:37;;;;;;;2.97;0.95;;;;;;;;;;5051801;28;20025;-68
2021/08/03 11:15:22;;;;;;;1.67;0.80;;;;;;;;;;5033608;28;20135;-69
2021/08/03 11:18:03;;;;;;;2.17;0.90;;;;;;;;;;5055090;28;20154;-68
2021/08/03 11:20:41;;;;;;;1.50;0.80;;;;;;;;;;5055515;28;20452;-68
2021/08/03 11:23:07;;;;;;;1.95;1.05;;;;;;;;;;5055529;28;20032;-68
2021/08/03 11:25:34;;;;;;;2.15;0.93;;;;;;;;;;5055318;28;20033;-68
2021/08/03 11:28:13;;;;;;;2.00;1.00;;;;;;;;;;5055170;28;20025;-69
2021/08/03 11:30:39;;;;;;;2.10;1.02;;;;;;;;;;5054880;28;20375;-69
2021/08/03 11:33:06;;;;;;;3.03;1.10;;;;;;;;;;5037244;28;20017;-68
2021/08/03 11:35:32;;;;;;;2.20;1.10;;;;;;;;;;5055278;28;20020;-68
2021/08/03 11:38:08;;;;;;;2.25;1.17;;;;;;;;;;5054833;28;20391;-68
2021/08/03 11:40:35;;;;;;;1.88;0.90;;;;;;;;;;5055275;28;20025;-68
2021/08/03 11:43:02;;;;;;;2.05;1.00;;;;;;;;;;5055210;28;20028;-68
2021/08/03 11:45:28;;;;;;;2.38;1.02;;;;;;;;;;5055060;28;20029;-69
2021/08/03 11:48:01;;;;;;;1.80;0.90;;;;;;;;;;5054707;28;20085;-68
2021/08/03 11:50:30;;;;;;;2.08;1.05;;;;;;;;;;5036688;28;20178;-69
2021/08/03 11:53:30;;;;;;;2.17;1.00;;;;;;;;;;5054373;28;20022;-69
2021/08/03 11:55:57;;;;;;;1.95;1.10;;;;;;;;;;5021531;28;20085;-68
2021/08/03 11:58:24;;;;;;;2.67;1.00;;;;;;;;;;5036816;28;20037;-68
2021/08/03 12:00:57;;;;;;;1.60;0.85;;;;;;;;;;5036864;28;20480;-68
2021/08/03 12:03:33;;;;;;;3.13;1.23;;;;;;;;;;5036736;28;20025;-69
2021/08/03 12:06:00;;;;;;;3.67;1.00;;;;;;;;;;5054522;28;20025;-68
2021/08/03 12:08:32;;;;;;;1.92;0.90;;;;;;;;;;5054418;28;20013;-68
2021/08/03 12:10:58;;;;;;;2.05;0.90;;;;;;;;;;5054517;28;20025;-68
2021/08/03 12:13:30;;;;;;;2.42;1.00;;;;;;;;;;5032896;28;20396;-68
2021/08/03 12:15:58;;;;;;;2.88;1.23;;;;;;;;;;5034575;28;20057;-72
2021/08/03 12:18:33;;;;;;;3.45;1.50;;;;;;;;;;5034515;28;20034;-69
2021/08/03 12:20:59;;;;;;;2.50;0.90;;;;;;;;;;5049853;28;20026;-69
2021/08/03 12:23:28;;;;;;;2.83;1.02;;;;;;;;;;5034011;28;20029;-68
2021/08/03 12:26:05;;;;;;;3.53;1.23;;;;;;;;;;5034117;28;20028;-68
2021/08/03 12:28:32;;;;;;;2.75;1.10;;;;;;;;;;5049523;28;20428;-68
2021/08/03 12:31:13;;;;;;;1.80;1.00;;;;;;;;;;5034001;28;20499;-68
2021/08/03 12:33:39;;;;;;;2.92;0.90;;;;;;;;;;5034080;28;20029;-68
2021/08/03 12:36:12;;;;;;;2.88;1.08;;;;;;;;;;5034097;28;20476;-68
2021/08/03 12:38:39;;;;;;;2.50;1.10;;;;;;;;;;5034133;28;20037;-68
2021/08/03 12:41:15;;;;;;;2.28;1.00;;;;;;;;;;5049600;28;20035;-68
2021/08/03 12:43:41;;;;;;;1.48;0.80;;;;;;;;;;5033990;28;20108;-68
2021/08/03 12:46:08;;;;;;;1.80;0.98;;;;;;;;;;5033979;28;20100;-68
2021/08/03 12:48:34;;;;;;;1.70;0.80;;;;;;;;;;5033916;28;20431;-68
2021/08/03 12:51:01;;;;;;;1.67;0.90;;;;;;;;;;5034042;28;20106;-68
2021/08/03 12:53:29;;;;;;;2.17;1.20;;;;;;;;;;5034095;28;20157;-68
2021/08/03 12:56:05;;;;;;;3.17;1.27;;;;;;;;;;5049368;28;20018;-72
2021/08/03 12:58:41;;;;;;;2.20;0.90;;;;;;;;;;5048865;28;20126;-68
2021/08/03 13:01:11;;;;;;;2.35;1.05;;;;;;;;;;5033662;28;20100;-68
2021/08/03 13:03:37;;;;;;;1.83;0.80;;;;;;;;;;5033552;28;20022;-69
2021/08/03 13:06:04;;;;;;;2.20;0.90;;;;;;;;;;5034027;28;20025;-69
2021/08/03 13:08:30;;;;;;;2.28;1.08;;;;;;;;;;5033703;28;20030;-68
2021/08/03 13:10:56;;;;;;;2.35;1.00;;;;;;;;;;5033772;28;20060;-68
2021/08/03 13:13:22;;;;;;;1.23;0.77;;;;;;;;;;5048736;28;20057;-68
2021/08/03 13:15:49;;;;;;;1.65;0.90;;;;;;;;;;5048785;28;20022;-68
2021/08/03 13:18:15;;;;;;;1.95;0.93;;;;;;;;;;5033387;28;20048;-68
2021/08/03 13:20:41;;;;;;;2.38;0.95;;;;;;;;;;5048633;28;20021;-68
2021/08/03 13:23:07;;;;;;;1.90;1.08;;;;;;;;;;5033145;28;20029;-68
2021/08/03 13:25:33;;;;;;;1.80;1.00;;;;;;;;;;5033009;28;20021;-68
2021/08/03 13:27:59;;;;;;;1.73;0.85;;;;;;;;;;5048580;28;20031;-68
2021/08/03 13:30:26;;;;;;;2.35;0.90;;;;;;;;;;5033456;28;20068;-68
2021/08/03 13:32:52;;;;;;;4.43;1.05;;;;;;;;;;5033167;28;20022;-68
2021/08/03 13:35:18;;;;;;;2.08;1.00;;;;;;;;;;5033128;28;20089;-68
2021/08/03 13:37:44;;;;;;;2.40;1.08;;;;;;;;;;5032834;28;20021;-68
2021/08/03 13:40:13;;;;;;;2.05;0.93;;;;;;;;;;5032293;28;20061;-68
2021/08/03 13:42:39;;;;;;;2.95;1.40;;;;;;;;;;5033064;28;20424;-68
2021/08/03 13:45:06;;;;;;;2.38;1.23;;;;;;;;;;5033085;28;20025;-68
2021/08/03 13:47:32;;;;;;;2.78;1.08;;;;;;;;;;5032922;28;20025;-68
2021/08/03 13:49:58;;;;;;;2.28;0.98;;;;;;;;;;5047958;28;20505;-68
2021/08/03 13:52:24;;;;;;;3.13;1.08;;;;;;;;;;5032680;28;20108;-68
2021/08/03 13:54:50;;;;;;;1.50;0.88;;;;;;;;;;5032670;28;20025;-68
2021/08/03 13:57:17;;;;;;;4.07;0.98;;;;;;;;;;5032806;28;20017;-68
2021/08/03 13:59:43;;;;;;;1.98;1.08;;;;;;;;;;5033011;28;20025;-68
2021/08/03 14:02:09;;;;;;;2.17;1.00;;;;;;;;;;5032614;28;20022;-68
2021/08/03 14:04:35;;;;;;;1.77;0.80;;;;;;;;;;5032523;28;20036;-69
2021/08/03 14:07:01;;;;;;;2.17;0.95;;;;;;;;;;5047757;28;20030;-68
2021/08/03 14:09:31;;;;;;;2.22;1.08;;;;;;;;;;5047682;28;20026;-68
2021/08/03 14:11:57;;;;;;;1.90;1.00;;;;;;;;;;5032404;28;20029;-68
2021/08/03 14:14:24;;;;;;;2.13;1.10;;;;;;;;;;5047204;28;20045;-68
2021/08/03 14:16:50;;;;;;;1.73;1.00;;;;;;;;;;5052565;28;20052;-69
2021/08/03 14:19:16;;;;;;;2.33;0.98;;;;;;;;;;5052147;28;20087;-69
2021/08/03 14:21:43;;;;;;;2.28;1.00;;;;;;;;;;5052279;28;20416;-68
2021/08/03 14:24:09;;;;;;;1.85;0.95;;;;;;;;;;5052144;28;20017;-69
2021/08/03 14:26:36;;;;;;;1.85;0.98;;;;;;;;;;5034295;28;20473;-69
2021/08/03 14:29:02;;;;;;;1.38;0.80;;;;;;;;;;5052209;28;20084;-69
2021/08/03 14:31:30;;;;;;;3.22;1.23;;;;;;;;;;5052082;28;20036;-69
2021/08/03 14:33:57;;;;;;;1.50;0.80;;;;;;;;;;5052009;28;20502;-70
2021/08/03 14:36:23;;;;;;;2.10;0.80;;;;;;;;;;5052041;28;20120;-68
2021/08/03 14:38:49;;;;;;;1.92;0.90;;;;;;;;;;5034058;28;20029;-69
2021/08/03 14:41:19;;;;;;;2.15;0.90;;;;;;;;;;5052151;28;20025;-70
2021/08/03 14:43:46;;;;;;;3.22;0.90;;;;;;;;;;5052501;28;20048;-69
2021/08/03 14:46:12;;;;;;;1.70;0.95;;;;;;;;;;5033876;28;20475;-69
2021/08/03 14:48:38;;;;;;;1.73;0.90;;;;;;;;;;5033788;28;20029;-68